sensor_id;sensor_type;location;lat;lon;timestamp;P1;durP1;ratioP1;P2;durP2;ratioP2
20593;SDS011;10455;48.732;10.266;2024-02-23T00:04:16;1.20;;;1.20;;
20593;SDS011;10455;48.732;10.266;2024-02-23T00:09:20;1.30;;;1.30;;
20593;SDS011;10455;48.732;10.266;2024-02-23T00:14:22;1.20;;;1.20;;
20593;SDS011;10455;48.732;10.266;2024-02-23T00:19:24;1.30;;;1.30;;
20593;SDS011;10455;48.732;10.266;2024-02-23T00:24:27;1.30;;;1.30;;
20593;SDS011;10455;48.732;10.266;2024-02-23T00:29:29;1.33;;;1.33;;
20593;SDS011;10455;48.732;10.266;2024-02-23T00:34:31;1.40;;;1.40;;
20593;SDS011;10455;48.732;10.266;2024-02-23T00:39:34;1.30;;;1.30;;
20593;SDS011;10455;48.732;10.266;2024-02-23T00:44:37;1.40;;;1.40;;
20593;SDS011;10455;48.732;10.266;2024-02-23T00:49:39;1.40;;;1.40;;
20593;SDS011;10455;48.732;10.266;2024-02-23T00:54:42;1.40;;;1.40;;
20593;SDS011;10455;48.732;10.266;2024-02-23T00:59:44;1.40;;;1.40;;
20593;SDS011;10455;48.732;10.266;2024-02-23T01:04:46;1.40;;;1.40;;
20593;SDS011;10455;48.732;10.266;2024-02-23T01:09:50;1.40;;;1.40;;
20593;SDS011;10455;48.732;10.266;2024-02-23T01:14:52;1.50;;;1.50;;
20593;SDS011;10455;48.732;10.266;2024-02-23T01:19:54;1.40;;;1.40;;
20593;SDS011;10455;48.732;10.266;2024-02-23T01:24:58;1.37;;;1.37;;
20593;SDS011;10455;48.732;10.266;2024-02-23T01:30:00;1.40;;;1.40;;
20593;SDS011;10455;48.732;10.266;2024-02-23T01:35:02;1.60;;;1.50;;
20593;SDS011;10455;48.732;10.266;2024-02-23T01:40:06;1.57;;;1.50;;
20593;SDS011;10455;48.732;10.266;2024-02-23T01:45:08;1.50;;;1.50;;
20593;SDS011;10455;48.732;10.266;2024-02-23T01:50:10;1.70;;;1.60;;
20593;SDS011;10455;48.732;10.266;2024-02-23T01:55:14;1.70;;;1.60;;
20593;SDS011;10455;48.732;10.266;2024-02-23T02:00:16;1.60;;;1.50;;
20593;SDS011;10455;48.732;10.266;2024-02-23T02:05:19;1.70;;;1.60;;
20593;SDS011;10455;48.732;10.266;2024-02-23T02:10:22;1.67;;;1.57;;
20593;SDS011;10455;48.732;10.266;2024-02-23T02:15:24;1.70;;;1.60;;
20593;SDS011;10455;48.732;10.266;2024-02-23T02:20:26;1.70;;;1.60;;
20593;SDS011;10455;48.732;10.266;2024-02-23T02:25:34;1.70;;;1.60;;
20593;SDS011;10455;48.732;10.266;2024-02-23T02:30:36;1.70;;;1.60;;
20593;SDS011;10455;48.732;10.266;2024-02-23T02:35:38;1.70;;;1.60;;
20593;SDS011;10455;48.732;10.266;2024-02-23T02:40:41;1.70;;;1.60;;
20593;SDS011;10455;48.732;10.266;2024-02-23T02:45:43;1.70;;;1.60;;
20593;SDS011;10455;48.732;10.266;2024-02-23T02:50:45;1.80;;;1.70;;
20593;SDS011;10455;48.732;10.266;2024-02-23T02:55:48;1.80;;;1.70;;
20593;SDS011;10455;48.732;10.266;2024-02-23T03:00:50;1.70;;;1.60;;
20593;SDS011;10455;48.732;10.266;2024-02-23T03:05:52;1.70;;;1.60;;
20593;SDS011;10455;48.732;10.266;2024-02-23T03:10:55;1.80;;;1.70;;
20593;SDS011;10455;48.732;10.266;2024-02-23T03:15:58;1.80;;;1.70;;
20593;SDS011;10455;48.732;10.266;2024-02-23T03:21:00;1.80;;;1.70;;
20593;SDS011;10455;48.732;10.266;2024-02-23T03:26:06;1.60;;;1.50;;
20593;SDS011;10455;48.732;10.266;2024-02-23T03:31:08;1.80;;;1.70;;
20593;SDS011;10455;48.732;10.266;2024-02-23T03:36:10;1.80;;;1.70;;
20593;SDS011;10455;48.732;10.266;2024-02-23T03:41:13;1.90;;;1.80;;
20593;SDS011;10455;48.732;10.266;2024-02-23T03:46:15;1.80;;;1.70;;
20593;SDS011;10455;48.732;10.266;2024-02-23T03:51:17;1.90;;;1.80;;
20593;SDS011;10455;48.732;10.266;2024-02-23T03:56:21;1.80;;;1.70;;
20593;SDS011;10455;48.732;10.266;2024-02-23T04:01:22;2.03;;;1.93;;
20593;SDS011;10455;48.732;10.266;2024-02-23T04:06:24;1.90;;;1.80;;
20593;SDS011;10455;48.732;10.266;2024-02-23T04:11:27;1.87;;;1.77;;
20593;SDS011;10455;48.732;10.266;2024-02-23T04:16:29;1.83;;;1.73;;
20593;SDS011;10455;48.732;10.266;2024-02-23T04:21:31;1.80;;;1.70;;
20593;SDS011;10455;48.732;10.266;2024-02-23T04:26:35;1.90;;;1.80;;
20593;SDS011;10455;48.732;10.266;2024-02-23T04:31:37;1.90;;;1.80;;
20593;SDS011;10455;48.732;10.266;2024-02-23T04:36:39;1.83;;;1.73;;
20593;SDS011;10455;48.732;10.266;2024-02-23T04:41:42;1.90;;;1.80;;
20593;SDS011;10455;48.732;10.266;2024-02-23T04:46:44;1.90;;;1.80;;
20593;SDS011;10455;48.732;10.266;2024-02-23T04:51:45;1.80;;;1.70;;
20593;SDS011;10455;48.732;10.266;2024-02-23T04:56:49;1.80;;;1.70;;
20593;SDS011;10455;48.732;10.266;2024-02-23T05:01:51;1.90;;;1.80;;
20593;SDS011;10455;48.732;10.266;2024-02-23T05:06:53;1.83;;;1.73;;
20593;SDS011;10455;48.732;10.266;2024-02-23T05:11:56;1.90;;;1.80;;
20593;SDS011;10455;48.732;10.266;2024-02-23T05:16:58;1.90;;;1.80;;
20593;SDS011;10455;48.732;10.266;2024-02-23T05:22:00;2.00;;;1.90;;
20593;SDS011;10455;48.732;10.266;2024-02-23T05:27:05;1.90;;;1.80;;
20593;SDS011;10455;48.732;10.266;2024-02-23T05:32:07;1.90;;;1.80;;
20593;SDS011;10455;48.732;10.266;2024-02-23T05:37:09;1.80;;;1.70;;
20593;SDS011;10455;48.732;10.266;2024-02-23T05:42:12;1.83;;;1.73;;
20593;SDS011;10455;48.732;10.266;2024-02-23T05:47:14;2.00;;;1.90;;
20593;SDS011;10455;48.732;10.266;2024-02-23T05:52:16;1.80;;;1.70;;
20593;SDS011;10455;48.732;10.266;2024-02-23T05:57:19;1.90;;;1.80;;
20593;SDS011;10455;48.732;10.266;2024-02-23T06:02:21;1.90;;;1.80;;
20593;SDS011;10455;48.732;10.266;2024-02-23T06:07:24;2.00;;;1.90;;
20593;SDS011;10455;48.732;10.266;2024-02-23T06:12:30;1.80;;;1.70;;
20593;SDS011;10455;48.732;10.266;2024-02-23T06:17:32;1.73;;;1.70;;
20593;SDS011;10455;48.732;10.266;2024-02-23T06:22:34;2.10;;;2.00;;
20593;SDS011;10455;48.732;10.266;2024-02-23T06:27:37;1.83;;;1.73;;
20593;SDS011;10455;48.732;10.266;2024-02-23T06:32:39;1.90;;;1.80;;
20593;SDS011;10455;48.732;10.266;2024-02-23T06:37:41;1.77;;;1.67;;
20593;SDS011;10455;48.732;10.266;2024-02-23T06:42:44;1.80;;;1.70;;
20593;SDS011;10455;48.732;10.266;2024-02-23T06:47:46;1.80;;;1.70;;
20593;SDS011;10455;48.732;10.266;2024-02-23T06:52:48;1.90;;;1.80;;
20593;SDS011;10455;48.732;10.266;2024-02-23T06:57:51;1.80;;;1.70;;
20593;SDS011;10455;48.732;10.266;2024-02-23T07:02:53;1.80;;;1.70;;
20593;SDS011;10455;48.732;10.266;2024-02-23T07:07:58;1.80;;;1.70;;
20593;SDS011;10455;48.732;10.266;2024-02-23T07:13:02;1.70;;;1.60;;
20593;SDS011;10455;48.732;10.266;2024-02-23T07:18:04;1.70;;;1.70;;
20593;SDS011;10455;48.732;10.266;2024-02-23T07:23:08;1.87;;;1.77;;
20593;SDS011;10455;48.732;10.266;2024-02-23T07:28:11;1.90;;;1.80;;
20593;SDS011;10455;48.732;10.266;2024-02-23T07:33:14;1.90;;;1.80;;
20593;SDS011;10455;48.732;10.266;2024-02-23T07:38:16;1.90;;;1.80;;
20593;SDS011;10455;48.732;10.266;2024-02-23T07:43:20;1.90;;;1.80;;
20593;SDS011;10455;48.732;10.266;2024-02-23T07:48:22;1.80;;;1.70;;
20593;SDS011;10455;48.732;10.266;2024-02-23T07:53:25;1.70;;;1.60;;
20593;SDS011;10455;48.732;10.266;2024-02-23T07:58:28;1.90;;;1.80;;
20593;SDS011;10455;48.732;10.266;2024-02-23T08:03:30;2.00;;;1.90;;
20593;SDS011;10455;48.732;10.266;2024-02-23T08:08:32;1.87;;;1.77;;
20593;SDS011;10455;48.732;10.266;2024-02-23T08:13:36;1.90;;;1.80;;
20593;SDS011;10455;48.732;10.266;2024-02-23T08:18:38;1.83;;;1.73;;
20593;SDS011;10455;48.732;10.266;2024-02-23T08:23:40;1.90;;;1.80;;
20593;SDS011;10455;48.732;10.266;2024-02-23T08:28:43;2.00;;;1.90;;
20593;SDS011;10455;48.732;10.266;2024-02-23T08:33:45;1.90;;;1.80;;
20593;SDS011;10455;48.732;10.266;2024-02-23T08:38:47;2.00;;;1.90;;
20593;SDS011;10455;48.732;10.266;2024-02-23T08:43:50;1.93;;;1.83;;
20593;SDS011;10455;48.732;10.266;2024-02-23T08:48:52;1.93;;;1.83;;
20593;SDS011;10455;48.732;10.266;2024-02-23T08:53:54;2.00;;;1.90;;
20593;SDS011;10455;48.732;10.266;2024-02-23T08:58:58;1.80;;;1.70;;
20593;SDS011;10455;48.732;10.266;2024-02-23T09:04:00;2.00;;;1.90;;
20593;SDS011;10455;48.732;10.266;2024-02-23T09:09:02;2.00;;;1.90;;
20593;SDS011;10455;48.732;10.266;2024-02-23T09:14:06;1.90;;;1.80;;
20593;SDS011;10455;48.732;10.266;2024-02-23T09:19:07;1.90;;;1.80;;
20593;SDS011;10455;48.732;10.266;2024-02-23T09:24:09;3.30;;;3.00;;
20593;SDS011;10455;48.732;10.266;2024-02-23T09:29:13;4.00;;;3.00;;
20593;SDS011;10455;48.732;10.266;2024-02-23T09:34:15;3.20;;;2.90;;
20593;SDS011;10455;48.732;10.266;2024-02-23T09:39:17;4.40;;;3.03;;
20593;SDS011;10455;48.732;10.266;2024-02-23T09:44:21;3.40;;;3.07;;
20593;SDS011;10455;48.732;10.266;2024-02-23T09:49:23;3.47;;;2.73;;
20593;SDS011;10455;48.732;10.266;2024-02-23T09:54:25;4.07;;;3.00;;
20593;SDS011;10455;48.732;10.266;2024-02-23T09:59:29;3.93;;;3.20;;
20593;SDS011;10455;48.732;10.266;2024-02-23T10:04:31;5.67;;;3.30;;
20593;SDS011;10455;48.732;10.266;2024-02-23T10:09:33;5.37;;;3.10;;
20593;SDS011;10455;48.732;10.266;2024-02-23T10:14:36;4.40;;;3.20;;
20593;SDS011;10455;48.732;10.266;2024-02-23T10:19:38;5.20;;;3.37;;
20593;SDS011;10455;48.732;10.266;2024-02-23T10:24:41;4.00;;;3.57;;
20593;SDS011;10455;48.732;10.266;2024-02-23T10:29:48;5.37;;;4.27;;
20593;SDS011;10455;48.732;10.266;2024-02-23T10:34:51;5.83;;;4.40;;
20593;SDS011;10455;48.732;10.266;2024-02-23T10:39:57;4.83;;;4.43;;
20593;SDS011;10455;48.732;10.266;2024-02-23T10:45:05;5.43;;;4.30;;
20593;SDS011;10455;48.732;10.266;2024-02-23T10:50:08;4.10;;;3.70;;
20593;SDS011;10455;48.732;10.266;2024-02-23T10:55:14;3.87;;;3.57;;
20593;SDS011;10455;48.732;10.266;2024-02-23T11:00:18;4.00;;;3.70;;
20593;SDS011;10455;48.732;10.266;2024-02-23T11:05:24;3.70;;;3.17;;
20593;SDS011;10455;48.732;10.266;2024-02-23T11:10:26;5.83;;;3.67;;
20593;SDS011;10455;48.732;10.266;2024-02-23T11:15:30;3.90;;;3.60;;
20593;SDS011;10455;48.732;10.266;2024-02-23T11:20:34;3.50;;;3.20;;
20593;SDS011;10455;48.732;10.266;2024-02-23T11:25:38;4.60;;;3.03;;
20593;SDS011;10455;48.732;10.266;2024-02-23T11:30:44;4.77;;;3.37;;
20593;SDS011;10455;48.732;10.266;2024-02-23T11:35:48;3.60;;;3.30;;
20593;SDS011;10455;48.732;10.266;2024-02-23T11:40:51;3.43;;;3.13;;
20593;SDS011;10455;48.732;10.266;2024-02-23T11:45:55;4.20;;;3.83;;
20593;SDS011;10455;48.732;10.266;2024-02-23T11:50:57;3.97;;;3.30;;
20593;SDS011;10455;48.732;10.266;2024-02-23T11:55:59;4.20;;;3.60;;
20593;SDS011;10455;48.732;10.266;2024-02-23T12:01:03;3.60;;;3.30;;
20593;SDS011;10455;48.732;10.266;2024-02-23T12:06:07;10.20;;;7.87;;
20593;SDS011;10455;48.732;10.266;2024-02-23T12:11:09;8.10;;;3.70;;
20593;SDS011;10455;48.732;10.266;2024-02-23T12:16:15;5.87;;;4.63;;
20593;SDS011;10455;48.732;10.266;2024-02-23T12:21:17;3.77;;;3.13;;
20593;SDS011;10455;48.732;10.266;2024-02-23T12:26:19;4.37;;;3.37;;
20593;SDS011;10455;48.732;10.266;2024-02-23T12:31:25;10.93;;;7.40;;
20593;SDS011;10455;48.732;10.266;2024-02-23T12:36:28;4.20;;;3.87;;
20593;SDS011;10455;48.732;10.266;2024-02-23T12:41:31;5.73;;;4.47;;
20593;SDS011;10455;48.732;10.266;2024-02-23T12:46:34;6.47;;;3.53;;
20593;SDS011;10455;48.732;10.266;2024-02-23T12:51:36;6.20;;;3.80;;
20593;SDS011;10455;48.732;10.266;2024-02-23T12:56:38;5.27;;;4.10;;
20593;SDS011;10455;48.732;10.266;2024-02-23T13:01:41;6.13;;;4.00;;
20593;SDS011;10455;48.732;10.266;2024-02-23T13:06:43;7.17;;;3.50;;
20593;SDS011;10455;48.732;10.266;2024-02-23T13:11:45;4.83;;;3.80;;
20593;SDS011;10455;48.732;10.266;2024-02-23T13:16:49;5.20;;;4.53;;
20593;SDS011;10455;48.732;10.266;2024-02-23T13:21:51;5.37;;;4.63;;
20593;SDS011;10455;48.732;10.266;2024-02-23T13:26:53;8.17;;;6.10;;
20593;SDS011;10455;48.732;10.266;2024-02-23T13:31:57;8.03;;;6.80;;
20593;SDS011;10455;48.732;10.266;2024-02-23T13:36:59;20.00;;;5.60;;
20593;SDS011;10455;48.732;10.266;2024-02-23T13:42:00;5.67;;;5.23;;
20593;SDS011;10455;48.732;10.266;2024-02-23T13:47:04;7.43;;;4.87;;
20593;SDS011;10455;48.732;10.266;2024-02-23T13:52:06;6.47;;;5.13;;
20593;SDS011;10455;48.732;10.266;2024-02-23T13:57:08;7.47;;;5.80;;
20593;SDS011;10455;48.732;10.266;2024-02-23T14:02:12;5.80;;;5.30;;
20593;SDS011;10455;48.732;10.266;2024-02-23T14:07:14;6.87;;;5.30;;
20593;SDS011;10455;48.732;10.266;2024-02-23T14:12:17;8.17;;;5.60;;
20593;SDS011;10455;48.732;10.266;2024-02-23T14:17:20;20.60;;;17.83;;
20593;SDS011;10455;48.732;10.266;2024-02-23T14:22:22;8.33;;;7.63;;
20593;SDS011;10455;48.732;10.266;2024-02-23T14:27:24;10.37;;;8.80;;
20593;SDS011;10455;48.732;10.266;2024-02-23T14:32:28;6.17;;;5.73;;
20593;SDS011;10455;48.732;10.266;2024-02-23T14:37:31;6.50;;;5.77;;
20593;SDS011;10455;48.732;10.266;2024-02-23T14:42:33;6.83;;;5.63;;
20593;SDS011;10455;48.732;10.266;2024-02-23T14:47:36;15.87;;;9.53;;
20593;SDS011;10455;48.732;10.266;2024-02-23T14:52:38;9.87;;;6.03;;
20593;SDS011;10455;48.732;10.266;2024-02-23T14:57:40;7.63;;;6.93;;
20593;SDS011;10455;48.732;10.266;2024-02-23T15:02:43;7.07;;;5.17;;
20593;SDS011;10455;48.732;10.266;2024-02-23T15:07:45;6.20;;;5.20;;
20593;SDS011;10455;48.732;10.266;2024-02-23T15:12:47;25.00;;;17.90;;
20593;SDS011;10455;48.732;10.266;2024-02-23T15:17:50;14.37;;;11.10;;
20593;SDS011;10455;48.732;10.266;2024-02-23T15:22:53;26.70;;;18.67;;
20593;SDS011;10455;48.732;10.266;2024-02-23T15:27:55;7.63;;;5.80;;
20593;SDS011;10455;48.732;10.266;2024-02-23T15:32:59;6.27;;;5.70;;
20593;SDS011;10455;48.732;10.266;2024-02-23T15:38:00;62.53;;;41.23;;
20593;SDS011;10455;48.732;10.266;2024-02-23T15:43:02;9.27;;;5.70;;
20593;SDS011;10455;48.732;10.266;2024-02-23T15:48:06;8.57;;;7.73;;
20593;SDS011;10455;48.732;10.266;2024-02-23T15:53:09;12.53;;;9.80;;
20593;SDS011;10455;48.732;10.266;2024-02-23T15:58:10;28.27;;;18.50;;
20593;SDS011;10455;48.732;10.266;2024-02-23T16:03:17;28.60;;;17.97;;
20593;SDS011;10455;48.732;10.266;2024-02-23T16:08:20;8.10;;;7.23;;
20593;SDS011;10455;48.732;10.266;2024-02-23T16:13:40;13.93;;;9.80;;
20593;SDS011;10455;48.732;10.266;2024-02-23T16:18:44;4.27;;;3.87;;
20593;SDS011;10455;48.732;10.266;2024-02-23T16:23:45;5.87;;;3.97;;
20593;SDS011;10455;48.732;10.266;2024-02-23T16:28:48;7.97;;;4.23;;
20593;SDS011;10455;48.732;10.266;2024-02-23T16:33:52;4.93;;;4.47;;
20593;SDS011;10455;48.732;10.266;2024-02-23T16:38:54;5.97;;;4.17;;
20593;SDS011;10455;48.732;10.266;2024-02-23T16:43:56;5.03;;;4.33;;
20593;SDS011;10455;48.732;10.266;2024-02-23T16:48:59;4.77;;;4.33;;
20593;SDS011;10455;48.732;10.266;2024-02-23T16:54:03;5.67;;;4.47;;
20593;SDS011;10455;48.732;10.266;2024-02-23T16:59:04;5.83;;;4.30;;
20593;SDS011;10455;48.732;10.266;2024-02-23T17:04:08;9.03;;;6.70;;
20593;SDS011;10455;48.732;10.266;2024-02-23T17:09:09;6.20;;;5.70;;
20593;SDS011;10455;48.732;10.266;2024-02-23T17:14:11;6.00;;;5.50;;
20593;SDS011;10455;48.732;10.266;2024-02-23T17:19:15;8.97;;;8.03;;
20593;SDS011;10455;48.732;10.266;2024-02-23T17:24:16;6.30;;;5.67;;
20593;SDS011;10455;48.732;10.266;2024-02-23T17:29:18;9.77;;;8.10;;
20593;SDS011;10455;48.732;10.266;2024-02-23T17:34:21;6.97;;;6.37;;
20593;SDS011;10455;48.732;10.266;2024-02-23T17:39:23;10.70;;;9.63;;
20593;SDS011;10455;48.732;10.266;2024-02-23T17:44:25;8.17;;;7.37;;
20593;SDS011;10455;48.732;10.266;2024-02-23T17:49:30;7.27;;;6.50;;
20593;SDS011;10455;48.732;10.266;2024-02-23T17:54:31;8.37;;;7.57;;
20593;SDS011;10455;48.732;10.266;2024-02-23T17:59:33;5.53;;;5.03;;
20593;SDS011;10455;48.732;10.266;2024-02-23T18:04:37;7.30;;;5.90;;
20593;SDS011;10455;48.732;10.266;2024-02-23T18:09:40;8.63;;;7.73;;
20593;SDS011;10455;48.732;10.266;2024-02-23T18:14:43;6.13;;;5.63;;
20593;SDS011;10455;48.732;10.266;2024-02-23T18:19:46;6.67;;;6.07;;
20593;SDS011;10455;48.732;10.266;2024-02-23T18:24:48;5.77;;;5.30;;
20593;SDS011;10455;48.732;10.266;2024-02-23T18:29:50;5.80;;;5.07;;
20593;SDS011;10455;48.732;10.266;2024-02-23T18:34:53;6.40;;;5.13;;
20593;SDS011;10455;48.732;10.266;2024-02-23T18:39:55;6.27;;;5.67;;
20593;SDS011;10455;48.732;10.266;2024-02-23T18:44:57;5.80;;;5.30;;
20593;SDS011;10455;48.732;10.266;2024-02-23T18:50:00;6.93;;;5.10;;
20593;SDS011;10455;48.732;10.266;2024-02-23T18:55:02;5.97;;;5.27;;
20593;SDS011;10455;48.732;10.266;2024-02-23T19:00:05;7.73;;;6.63;;
20593;SDS011;10455;48.732;10.266;2024-02-23T19:05:09;13.83;;;9.07;;
20593;SDS011;10455;48.732;10.266;2024-02-23T19:10:12;14.70;;;9.83;;
20593;SDS011;10455;48.732;10.266;2024-02-23T19:15:14;12.83;;;9.03;;
20593;SDS011;10455;48.732;10.266;2024-02-23T19:20:17;11.87;;;9.40;;
20593;SDS011;10455;48.732;10.266;2024-02-23T19:25:19;9.50;;;8.13;;
20593;SDS011;10455;48.732;10.266;2024-02-23T19:30:21;13.13;;;11.37;;
20593;SDS011;10455;48.732;10.266;2024-02-23T19:35:24;13.83;;;12.40;;
20593;SDS011;10455;48.732;10.266;2024-02-23T19:40:27;13.40;;;11.93;;
20593;SDS011;10455;48.732;10.266;2024-02-23T19:45:29;9.70;;;8.87;;
20593;SDS011;10455;48.732;10.266;2024-02-23T19:50:32;9.53;;;8.60;;
20593;SDS011;10455;48.732;10.266;2024-02-23T19:55:34;16.50;;;14.57;;
20593;SDS011;10455;48.732;10.266;2024-02-23T20:00:36;19.13;;;16.57;;
20593;SDS011;10455;48.732;10.266;2024-02-23T20:05:40;18.17;;;16.10;;
20593;SDS011;10455;48.732;10.266;2024-02-23T20:10:42;14.00;;;12.60;;
20593;SDS011;10455;48.732;10.266;2024-02-23T20:15:44;13.07;;;11.57;;
20593;SDS011;10455;48.732;10.266;2024-02-23T20:20:47;11.80;;;10.27;;
20593;SDS011;10455;48.732;10.266;2024-02-23T20:25:49;16.80;;;13.93;;
20593;SDS011;10455;48.732;10.266;2024-02-23T20:30:51;20.63;;;15.00;;
20593;SDS011;10455;48.732;10.266;2024-02-23T20:35:58;16.53;;;13.33;;
20593;SDS011;10455;48.732;10.266;2024-02-23T20:41:00;13.57;;;10.93;;
20593;SDS011;10455;48.732;10.266;2024-02-23T20:46:02;10.13;;;9.13;;
20593;SDS011;10455;48.732;10.266;2024-02-23T20:51:05;9.00;;;8.13;;
20593;SDS011;10455;48.732;10.266;2024-02-23T20:56:09;10.53;;;9.47;;
20593;SDS011;10455;48.732;10.266;2024-02-23T21:01:11;10.47;;;8.87;;
20593;SDS011;10455;48.732;10.266;2024-02-23T21:06:14;10.63;;;9.60;;
20593;SDS011;10455;48.732;10.266;2024-02-23T21:11:16;10.33;;;9.27;;
20593;SDS011;10455;48.732;10.266;2024-02-23T21:16:18;11.00;;;9.90;;
20593;SDS011;10455;48.732;10.266;2024-02-23T21:21:21;11.83;;;10.63;;
20593;SDS011;10455;48.732;10.266;2024-02-23T21:26:24;11.67;;;10.60;;
20593;SDS011;10455;48.732;10.266;2024-02-23T21:31:26;15.23;;;10.87;;
20593;SDS011;10455;48.732;10.266;2024-02-23T21:36:29;13.47;;;12.27;;
20593;SDS011;10455;48.732;10.266;2024-02-23T21:41:31;15.40;;;12.50;;
20593;SDS011;10455;48.732;10.266;2024-02-23T21:46:33;19.40;;;17.53;;
20593;SDS011;10455;48.732;10.266;2024-02-23T21:51:36;21.80;;;19.97;;
20593;SDS011;10455;48.732;10.266;2024-02-23T21:56:38;14.10;;;13.00;;
20593;SDS011;10455;48.732;10.266;2024-02-23T22:01:39;10.60;;;9.63;;
20593;SDS011;10455;48.732;10.266;2024-02-23T22:06:43;10.33;;;9.43;;
20593;SDS011;10455;48.732;10.266;2024-02-23T22:11:44;14.37;;;12.87;;
20593;SDS011;10455;48.732;10.266;2024-02-23T22:16:46;19.33;;;17.30;;
20593;SDS011;10455;48.732;10.266;2024-02-23T22:21:49;22.73;;;18.37;;
20593;SDS011;10455;48.732;10.266;2024-02-23T22:26:51;15.67;;;14.03;;
20593;SDS011;10455;48.732;10.266;2024-02-23T22:31:54;13.57;;;12.00;;
20593;SDS011;10455;48.732;10.266;2024-02-23T22:36:59;16.07;;;14.37;;
20593;SDS011;10455;48.732;10.266;2024-02-23T22:42:01;14.73;;;13.17;;
20593;SDS011;10455;48.732;10.266;2024-02-23T22:47:04;13.70;;;12.00;;
20593;SDS011;10455;48.732;10.266;2024-02-23T22:52:08;14.67;;;13.17;;
20593;SDS011;10455;48.732;10.266;2024-02-23T22:57:11;15.30;;;13.33;;
20593;SDS011;10455;48.732;10.266;2024-02-23T23:02:14;19.93;;;17.50;;
20593;SDS011;10455;48.732;10.266;2024-02-23T23:07:17;13.97;;;12.23;;
20593;SDS011;10455;48.732;10.266;2024-02-23T23:12:19;14.50;;;12.50;;
20593;SDS011;10455;48.732;10.266;2024-02-23T23:17:21;11.60;;;10.37;;
20593;SDS011;10455;48.732;10.266;2024-02-23T23:22:24;12.37;;;11.07;;
20593;SDS011;10455;48.732;10.266;2024-02-23T23:27:25;10.17;;;9.17;;
20593;SDS011;10455;48.732;10.266;2024-02-23T23:32:27;9.70;;;8.80;;
20593;SDS011;10455;48.732;10.266;2024-02-23T23:37:31;13.10;;;9.10;;
20593;SDS011;10455;48.732;10.266;2024-02-23T23:42:33;13.07;;;11.17;;
20593;SDS011;10455;48.732;10.266;2024-02-23T23:47:34;12.87;;;11.43;;
20593;SDS011;10455;48.732;10.266;2024-02-23T23:52:38;12.53;;;11.13;;
20593;SDS011;10455;48.732;10.266;2024-02-23T23:57:39;13.33;;;11.90;;
